Terminal Aerodrome Forecast
Issued by NWS

Home | Current Version | Previous Version | Graphics & Text | Print | Product List | Glossary On
Versions: 1 2 3 4 5 6 7 8 9 10 11 12 13 14 15
000
FTUS43 KOAX 211605 AAC
TAFCDR
TAF AMD
KCDR 211605Z 2116/2212 30007KT 6SM BR SCT005 OVC015
     FM211700 02013G19KT P6SM FEW150
     FM212300 06005KT P6SM SKC=

USA.gov is the U.S. government's official web portal to all federal, state and local government web resources and services.